Flight Track Log - Related Links

Times and Time Zones

All times are in EDT time to prevent confusion due to time zone crossing. See the PDT4147 flight status page for this flight to view local times or setup timezone preferences in your user account.

Time Position Orientation Groundspeed Altitude Reporting Facility
EDT Latitude Longitude Course Direction KTS MPH feet Rate Location/Type
Tue 04:32:00 PM 37.0694 -80.0213 195° South  Level FlightAware
Tue 04:33:00 PM 37.0070 -80.0333 180° South  Level FlightAware
Tue 04:34:00 PM 36.9434 -80.0315 176° South  Level FlightAware
Tue 04:35:00 PM 36.8799 -80.0266 176° South  Level FlightAware
Tue 04:36:00 PM 36.8163 -80.0218 176° South  Level FlightAware
Tue 04:37:00 PM 36.7528 -80.0169 176° South  Level FlightAware
Tue 04:38:00 PM 36.6892 -80.0150 177° South  Level FlightAware
Tue 04:39:00 PM 36.6256 -80.0110 177° South  Level FlightAware
Tue 04:40:00 PM 36.5621 -80.0070 177° South  Level FlightAware
Tue 04:41:00 PM 36.4985 -80.0030 177° South  Level FlightAware
Tue 04:42:00 PM 36.4350 -79.9981 174° South  Level FlightAware
Tue 04:43:00 PM 36.3717 -79.9902 174° South  Level FlightAware
Tue 04:44:00 PM 36.3083 -79.9828 177° South  Level FlightAware
Tue 04:45:00 PM 36.2448 -79.9791 177° South  Level FlightAware
Tue 04:46:00 PM 36.1812 -79.9753 177° South  Level FlightAware
Tue 04:47:00 PM 36.1176 -79.9716 177° South  Level FlightAware
Tue 04:48:00 PM 36.0541 -79.9679 177° South  Level FlightAware
Tue 04:49:00 PM 36.0056 -80.0072 230° Southwest  Level FlightAware
Tue 04:50:00 PM 35.9644 -80.0671 230° Southwest  Level FlightAware
Tue 04:51:00 PM 35.9232 -80.1271 230° Southwest  Level FlightAware
Tue 04:52:00 PM 35.8820 -80.1869 230° Southwest  Level FlightAware
Tue 04:53:00 PM 35.8400 -80.2459 225° Southwest  Level FlightAware
Tue 04:53:02 PM 35.9925 -80.4278 228° Southwest 210 242 6,100  Level Atlanta Center
Tue 04:54:00 PM 35.7953 -80.3018 225° Southwest  Level FlightAware
Tue 04:54:40 PM 35.8989 -80.4294 181° South 207 238 6,100  Level Atlanta Center
Tue 04:55:00 PM 35.7517 -80.3589 227° Southwest  Level FlightAware
Tue 04:55:41 PM 35.8383 -80.4294 180° South 210 242 6,000  Level Atlanta Center
Tue 04:56:00 PM 35.7085 -80.4165 227° Southwest  Level FlightAware
Tue 04:56:42 PM 35.7808 -80.4603 204° Southwest 233 268 6,000  Level Atlanta Center
Tue 04:57:00 PM 35.6633 -80.4714 228° Southwest  Level FlightAware
Tue 04:57:43 PM 35.7239 -80.5089 215° Southwest 243 280 6,000  Level Atlanta Center
Tue 04:58:00 PM 35.6209 -80.5297 228° Southwest  Level FlightAware
Tue 04:58:44 PM 35.6881 -80.5742 236° Southwest 238 274 6,100  Level Atlanta Center
Tue 04:59:57 PM 35.6489 -80.6653 242° Southwest 236 272 6,000 -49 Descending Atlanta Center
Tue 05:00:46 PM 35.6253 -80.7200 242° Southwest 234 269 6,000  Level Atlanta Center
Tue 05:01:47 PM 35.5814 -80.7881 232° Southwest 242 278 6,000 -448 Level Atlanta Center
Tue 05:03:00 PM 35.5244 -80.8517 222° Southwest 248 285 5,000 -492 Descending Atlanta Center
Tue 05:03:49 PM 35.4839 -80.8967 222° Southwest 238 274 5,000 -109 Level Atlanta Center
Tue 05:04:50 PM 35.4350 -80.9367 214° Southwest 217 250 4,800 -609 Descending Atlanta Center
Tue 05:05:57 PM 35.3753 -80.9669 202° Southwest 179 206 3,700 -984 Descending Atlanta Center
Tue 05:06:52 PM 35.3314 -80.9636 176° South 171 197 2,800 -931 Descending Atlanta Center
Tue 05:07:53 PM 35.2875 -80.9625 179° South 153 176 1,900 -738 Descending Atlanta Center
Tue 05:08:54 PM 35.2497 -80.9564 172° South 132 152 1,300 -590 Descending Atlanta Center
Tue 05:10:00 PM 35.2137 -80.9491 209° Southwest  Level Estimated
Tue 05:17:00 PM 35.2137 -80.9491 209° Southwest  Level Estimated

Login

Don't have an account? Register now (free) for customized features, flight alerts, and more!